sensor_id;sensor_type;location;lat;lon;timestamp;temperature;humidity
1956;DHT22;978;48.314;11.562;2023-07-31T00:00:44;23.90;84.90
1956;DHT22;978;48.314;11.562;2023-07-31T00:03:12;23.90;84.90
1956;DHT22;978;48.314;11.562;2023-07-31T00:05:39;23.90;84.80
1956;DHT22;978;48.314;11.562;2023-07-31T00:08:06;23.90;84.80
1956;DHT22;978;48.314;11.562;2023-07-31T00:10:34;23.90;84.80
1956;DHT22;978;48.314;11.562;2023-07-31T00:13:01;23.90;85.30
1956;DHT22;978;48.314;11.562;2023-07-31T00:15:28;23.90;84.70
1956;DHT22;978;48.314;11.562;2023-07-31T00:17:55;23.90;84.80
1956;DHT22;978;48.314;11.562;2023-07-31T00:20:23;24.00;84.70
1956;DHT22;978;48.314;11.562;2023-07-31T00:22:50;23.90;84.70
1956;DHT22;978;48.314;11.562;2023-07-31T00:25:16;24.00;84.70
1956;DHT22;978;48.314;11.562;2023-07-31T00:27:47;23.90;84.70
1956;DHT22;978;48.314;11.562;2023-07-31T00:30:14;23.90;84.60
1956;DHT22;978;48.314;11.562;2023-07-31T00:32:41;23.90;84.60
1956;DHT22;978;48.314;11.562;2023-07-31T00:35:08;23.90;84.60
1956;DHT22;978;48.314;11.562;2023-07-31T00:37:35;23.90;84.60
1956;DHT22;978;48.314;11.562;2023-07-31T00:40:03;23.90;84.50
1956;DHT22;978;48.314;11.562;2023-07-31T00:42:31;23.90;84.60
1956;DHT22;978;48.314;11.562;2023-07-31T00:45:00;23.90;84.50
1956;DHT22;978;48.314;11.562;2023-07-31T00:47:27;24.00;84.60
1956;DHT22;978;48.314;11.562;2023-07-31T00:49:54;23.90;84.50
1956;DHT22;978;48.314;11.562;2023-07-31T00:52:21;23.90;84.50
1956;DHT22;978;48.314;11.562;2023-07-31T00:54:48;23.90;84.50
1956;DHT22;978;48.314;11.562;2023-07-31T00:57:16;23.90;84.50
1956;DHT22;978;48.314;11.562;2023-07-31T00:59:44;23.90;84.50
1956;DHT22;978;48.314;11.562;2023-07-31T01:02:15;23.90;84.50
1956;DHT22;978;48.314;11.562;2023-07-31T01:04:43;23.90;84.40
1956;DHT22;978;48.314;11.562;2023-07-31T01:07:14;24.10;84.50
1956;DHT22;978;48.314;11.562;2023-07-31T01:09:47;23.80;84.40
1956;DHT22;978;48.314;11.562;2023-07-31T01:12:15;23.90;84.40
1956;DHT22;978;48.314;11.562;2023-07-31T01:14:51;23.90;84.40
1956;DHT22;978;48.314;11.562;2023-07-31T01:17:19;23.90;84.30
1956;DHT22;978;48.314;11.562;2023-07-31T01:19:47;23.90;84.30
1956;DHT22;978;48.314;11.562;2023-07-31T01:22:31;23.90;84.30
1956;DHT22;978;48.314;11.562;2023-07-31T01:25:14;23.90;84.30
1956;DHT22;978;48.314;11.562;2023-07-31T01:27:50;23.90;84.30
1956;DHT22;978;48.314;11.562;2023-07-31T01:30:22;23.90;84.30
1956;DHT22;978;48.314;11.562;2023-07-31T01:32:53;23.90;84.30
1956;DHT22;978;48.314;11.562;2023-07-31T01:35:21;23.90;84.30
1956;DHT22;978;48.314;11.562;2023-07-31T01:37:48;23.90;84.20
1956;DHT22;978;48.314;11.562;2023-07-31T01:40:16;23.90;84.20
1956;DHT22;978;48.314;11.562;2023-07-31T01:42:42;23.80;84.10
1956;DHT22;978;48.314;11.562;2023-07-31T01:45:12;23.90;84.20
1956;DHT22;978;48.314;11.562;2023-07-31T01:47:38;23.90;84.20
1956;DHT22;978;48.314;11.562;2023-07-31T01:50:06;23.90;84.80
1956;DHT22;978;48.314;11.562;2023-07-31T01:52:32;23.90;84.20
1956;DHT22;978;48.314;11.562;2023-07-31T01:54:59;23.90;84.20
1956;DHT22;978;48.314;11.562;2023-07-31T01:57:26;23.90;84.20
1956;DHT22;978;48.314;11.562;2023-07-31T01:59:54;23.90;84.20
1956;DHT22;978;48.314;11.562;2023-07-31T02:02:23;23.90;84.20
1956;DHT22;978;48.314;11.562;2023-07-31T02:04:49;23.90;84.10
1956;DHT22;978;48.314;11.562;2023-07-31T02:07:16;23.90;84.10
1956;DHT22;978;48.314;11.562;2023-07-31T02:09:43;24.00;84.20
1956;DHT22;978;48.314;11.562;2023-07-31T02:12:10;23.90;84.10
1956;DHT22;978;48.314;11.562;2023-07-31T02:14:37;23.90;84.10
1956;DHT22;978;48.314;11.562;2023-07-31T02:17:05;25.50;85.10
1956;DHT22;978;48.314;11.562;2023-07-31T02:19:33;23.90;84.10
1956;DHT22;978;48.314;11.562;2023-07-31T02:22:01;23.90;84.10
1956;DHT22;978;48.314;11.562;2023-07-31T02:24:28;23.90;84.10
1956;DHT22;978;48.314;11.562;2023-07-31T02:26:55;23.90;84.00
1956;DHT22;978;48.314;11.562;2023-07-31T02:29:21;23.90;84.00
1956;DHT22;978;48.314;11.562;2023-07-31T02:31:49;23.90;84.00
1956;DHT22;978;48.314;11.562;2023-07-31T02:34:16;23.90;84.00
1956;DHT22;978;48.314;11.562;2023-07-31T02:36:45;23.90;84.00
1956;DHT22;978;48.314;11.562;2023-07-31T02:39:14;23.90;84.00
1956;DHT22;978;48.314;11.562;2023-07-31T02:41:41;24.00;84.00
1956;DHT22;978;48.314;11.562;2023-07-31T02:44:10;23.90;83.90
1956;DHT22;978;48.314;11.562;2023-07-31T02:46:39;23.90;83.90
1956;DHT22;978;48.314;11.562;2023-07-31T02:49:06;24.20;84.10
1956;DHT22;978;48.314;11.562;2023-07-31T02:51:33;23.90;83.90
1956;DHT22;978;48.314;11.562;2023-07-31T02:54:01;23.90;83.90
1956;DHT22;978;48.314;11.562;2023-07-31T02:56:29;23.90;84.40
1956;DHT22;978;48.314;11.562;2023-07-31T02:58:55;23.90;83.80
1956;DHT22;978;48.314;11.562;2023-07-31T03:01:22;23.90;83.80
1956;DHT22;978;48.314;11.562;2023-07-31T03:03:49;23.90;83.80
1956;DHT22;978;48.314;11.562;2023-07-31T03:06:17;23.90;83.80
1956;DHT22;978;48.314;11.562;2023-07-31T03:08:44;23.90;83.80
1956;DHT22;978;48.314;11.562;2023-07-31T03:11:12;23.90;83.70
1956;DHT22;978;48.314;11.562;2023-07-31T03:13:38;23.90;83.70
1956;DHT22;978;48.314;11.562;2023-07-31T03:16:05;23.90;84.30
1956;DHT22;978;48.314;11.562;2023-07-31T03:18:32;23.80;83.60
1956;DHT22;978;48.314;11.562;2023-07-31T03:20:58;23.90;83.70
1956;DHT22;978;48.314;11.562;2023-07-31T03:23:25;23.90;83.70
1956;DHT22;978;48.314;11.562;2023-07-31T03:25:57;23.90;83.70
1956;DHT22;978;48.314;11.562;2023-07-31T03:28:25;23.90;83.70
1956;DHT22;978;48.314;11.562;2023-07-31T03:30:52;23.90;83.60
1956;DHT22;978;48.314;11.562;2023-07-31T03:33:19;23.90;83.60
1956;DHT22;978;48.314;11.562;2023-07-31T03:35:46;23.90;83.60
1956;DHT22;978;48.314;11.562;2023-07-31T03:38:13;23.90;83.60
1956;DHT22;978;48.314;11.562;2023-07-31T03:40:39;23.90;83.60
1956;DHT22;978;48.314;11.562;2023-07-31T03:43:06;23.90;83.60
1956;DHT22;978;48.314;11.562;2023-07-31T03:45:36;24.10;83.70
1956;DHT22;978;48.314;11.562;2023-07-31T03:48:03;23.90;83.60
1956;DHT22;978;48.314;11.562;2023-07-31T03:50:30;23.90;83.50
1956;DHT22;978;48.314;11.562;2023-07-31T03:52:57;23.90;84.10
1956;DHT22;978;48.314;11.562;2023-07-31T03:55:24;23.90;83.50
1956;DHT22;978;48.314;11.562;2023-07-31T03:57:50;23.90;83.50
1956;DHT22;978;48.314;11.562;2023-07-31T04:00:17;23.80;83.40
1956;DHT22;978;48.314;11.562;2023-07-31T04:02:45;23.90;83.50
1956;DHT22;978;48.314;11.562;2023-07-31T04:05:12;23.90;83.50
1956;DHT22;978;48.314;11.562;2023-07-31T04:07:39;23.90;83.50
1956;DHT22;978;48.314;11.562;2023-07-31T04:10:06;23.90;83.50
1956;DHT22;978;48.314;11.562;2023-07-31T04:12:33;23.80;83.40
1956;DHT22;978;48.314;11.562;2023-07-31T04:14:59;23.90;83.40
1956;DHT22;978;48.314;11.562;2023-07-31T04:17:28;23.90;83.40
1956;DHT22;978;48.314;11.562;2023-07-31T04:19:56;23.90;83.40
1956;DHT22;978;48.314;11.562;2023-07-31T04:22:22;23.90;83.40
1956;DHT22;978;48.314;11.562;2023-07-31T04:24:49;23.90;83.40
1956;DHT22;978;48.314;11.562;2023-07-31T04:27:17;23.90;83.40
1956;DHT22;978;48.314;11.562;2023-07-31T04:29:44;23.90;83.40
1956;DHT22;978;48.314;11.562;2023-07-31T04:32:12;23.90;83.40
1956;DHT22;978;48.314;11.562;2023-07-31T04:34:41;23.90;83.40
1956;DHT22;978;48.314;11.562;2023-07-31T04:37:09;23.90;83.40
1956;DHT22;978;48.314;11.562;2023-07-31T04:39:36;23.90;83.40
1956;DHT22;978;48.314;11.562;2023-07-31T04:42:03;23.90;83.40
1956;DHT22;978;48.314;11.562;2023-07-31T04:44:30;23.90;83.40
1956;DHT22;978;48.314;11.562;2023-07-31T04:46:56;23.90;83.20
1956;DHT22;978;48.314;11.562;2023-07-31T04:49:26;23.80;82.90
1956;DHT22;978;48.314;11.562;2023-07-31T04:51:55;23.90;82.90
1956;DHT22;978;48.314;11.562;2023-07-31T04:54:25;23.90;83.00
1956;DHT22;978;48.314;11.562;2023-07-31T04:56:52;23.90;83.10
1956;DHT22;978;48.314;11.562;2023-07-31T04:59:21;23.90;83.20
1956;DHT22;978;48.314;11.562;2023-07-31T05:01:48;23.90;83.20
1956;DHT22;978;48.314;11.562;2023-07-31T05:04:15;23.90;83.30
1956;DHT22;978;48.314;11.562;2023-07-31T05:06:42;23.90;83.40
1956;DHT22;978;48.314;11.562;2023-07-31T05:09:09;24.10;83.50
1956;DHT22;978;48.314;11.562;2023-07-31T05:11:37;23.90;83.40
1956;DHT22;978;48.314;11.562;2023-07-31T05:14:05;23.90;83.40
1956;DHT22;978;48.314;11.562;2023-07-31T05:16:34;23.90;83.40
1956;DHT22;978;48.314;11.562;2023-07-31T05:19:00;23.90;83.40
1956;DHT22;978;48.314;11.562;2023-07-31T05:21:29;23.90;83.40
1956;DHT22;978;48.314;11.562;2023-07-31T05:23:57;23.90;83.40
1956;DHT22;978;48.314;11.562;2023-07-31T05:26:23;23.90;83.50
1956;DHT22;978;48.314;11.562;2023-07-31T05:28:51;23.80;83.40
1956;DHT22;978;48.314;11.562;2023-07-31T05:31:18;23.90;83.50
1956;DHT22;978;48.314;11.562;2023-07-31T05:33:46;23.90;83.50
1956;DHT22;978;48.314;11.562;2023-07-31T05:36:14;23.90;83.50
1956;DHT22;978;48.314;11.562;2023-07-31T05:38:42;23.90;83.50
1956;DHT22;978;48.314;11.562;2023-07-31T05:41:09;23.90;83.50
1956;DHT22;978;48.314;11.562;2023-07-31T05:43:36;23.90;83.50
1956;DHT22;978;48.314;11.562;2023-07-31T05:46:04;23.90;83.50
1956;DHT22;978;48.314;11.562;2023-07-31T05:48:32;23.90;83.50
1956;DHT22;978;48.314;11.562;2023-07-31T05:50:59;23.90;83.60
1956;DHT22;978;48.314;11.562;2023-07-31T05:53:26;23.90;83.60
1956;DHT22;978;48.314;11.562;2023-07-31T05:55:53;23.80;83.50
1956;DHT22;978;48.314;11.562;2023-07-31T05:58:19;23.90;83.60
1956;DHT22;978;48.314;11.562;2023-07-31T06:00:46;23.90;83.60
1956;DHT22;978;48.314;11.562;2023-07-31T06:03:15;23.90;83.70
1956;DHT22;978;48.314;11.562;2023-07-31T06:05:41;23.90;83.70
1956;DHT22;978;48.314;11.562;2023-07-31T06:08:08;23.90;83.80
1956;DHT22;978;48.314;11.562;2023-07-31T06:10:35;23.90;83.80
1956;DHT22;978;48.314;11.562;2023-07-31T06:13:02;23.80;83.80
1956;DHT22;978;48.314;11.562;2023-07-31T06:15:28;23.90;83.90
1956;DHT22;978;48.314;11.562;2023-07-31T06:17:57;23.80;83.80
1956;DHT22;978;48.314;11.562;2023-07-31T06:20:28;23.90;83.90
1956;DHT22;978;48.314;11.562;2023-07-31T06:22:55;23.90;83.90
1956;DHT22;978;48.314;11.562;2023-07-31T06:25:24;23.90;83.90
1956;DHT22;978;48.314;11.562;2023-07-31T06:27:51;23.90;83.90
1956;DHT22;978;48.314;11.562;2023-07-31T06:30:17;23.90;84.00
1956;DHT22;978;48.314;11.562;2023-07-31T06:32:44;23.90;84.00
1956;DHT22;978;48.314;11.562;2023-07-31T06:35:11;23.90;84.10
1956;DHT22;978;48.314;11.562;2023-07-31T06:37:39;23.90;84.10
1956;DHT22;978;48.314;11.562;2023-07-31T06:40:09;24.50;84.50
1956;DHT22;978;48.314;11.562;2023-07-31T06:42:37;23.90;84.20
1956;DHT22;978;48.314;11.562;2023-07-31T06:45:05;23.90;84.20
1956;DHT22;978;48.314;11.562;2023-07-31T06:47:33;23.90;84.20
1956;DHT22;978;48.314;11.562;2023-07-31T06:50:00;23.90;84.30
1956;DHT22;978;48.314;11.562;2023-07-31T06:52:27;23.90;84.20
1956;DHT22;978;48.314;11.562;2023-07-31T06:55:02;23.90;84.20
1956;DHT22;978;48.314;11.562;2023-07-31T06:57:30;23.90;84.20
1956;DHT22;978;48.314;11.562;2023-07-31T06:59:56;23.90;84.10
1956;DHT22;978;48.314;11.562;2023-07-31T07:02:24;23.90;84.20
1956;DHT22;978;48.314;11.562;2023-07-31T07:04:51;23.90;84.20
1956;DHT22;978;48.314;11.562;2023-07-31T07:07:19;23.90;84.20
1956;DHT22;978;48.314;11.562;2023-07-31T07:09:47;23.90;84.20
1956;DHT22;978;48.314;11.562;2023-07-31T07:12:15;23.90;84.20
1956;DHT22;978;48.314;11.562;2023-07-31T07:14:44;23.90;84.20
1956;DHT22;978;48.314;11.562;2023-07-31T07:17:11;23.90;84.20
1956;DHT22;978;48.314;11.562;2023-07-31T07:19:40;23.90;84.20
1956;DHT22;978;48.314;11.562;2023-07-31T07:22:07;23.90;84.20
1956;DHT22;978;48.314;11.562;2023-07-31T07:24:34;23.90;84.20
1956;DHT22;978;48.314;11.562;2023-07-31T07:27:01;23.90;84.20
1956;DHT22;978;48.314;11.562;2023-07-31T07:29:30;23.90;84.20
1956;DHT22;978;48.314;11.562;2023-07-31T07:31:57;23.90;84.20
1956;DHT22;978;48.314;11.562;2023-07-31T07:34:26;23.90;84.20
1956;DHT22;978;48.314;11.562;2023-07-31T07:36:53;23.90;84.20
1956;DHT22;978;48.314;11.562;2023-07-31T07:39:24;23.90;84.30
1956;DHT22;978;48.314;11.562;2023-07-31T07:41:53;23.90;84.30
1956;DHT22;978;48.314;11.562;2023-07-31T07:44:19;23.90;84.30
1956;DHT22;978;48.314;11.562;2023-07-31T07:46:48;23.90;84.30
1956;DHT22;978;48.314;11.562;2023-07-31T07:49:14;23.90;84.20
1956;DHT22;978;48.314;11.562;2023-07-31T07:51:41;23.90;84.20
1956;DHT22;978;48.314;11.562;2023-07-31T07:54:08;23.90;84.20
1956;DHT22;978;48.314;11.562;2023-07-31T07:56:35;23.90;84.20
1956;DHT22;978;48.314;11.562;2023-07-31T07:59:02;23.90;84.20
1956;DHT22;978;48.314;11.562;2023-07-31T08:01:29;23.90;84.20
1956;DHT22;978;48.314;11.562;2023-07-31T08:03:59;23.90;84.20
1956;DHT22;978;48.314;11.562;2023-07-31T08:06:28;23.90;84.20
1956;DHT22;978;48.314;11.562;2023-07-31T08:08:56;23.90;84.20
1956;DHT22;978;48.314;11.562;2023-07-31T08:11:22;23.90;84.20
1956;DHT22;978;48.314;11.562;2023-07-31T08:13:49;23.90;84.20
1956;DHT22;978;48.314;11.562;2023-07-31T08:16:16;23.80;84.10
1956;DHT22;978;48.314;11.562;2023-07-31T08:18:43;23.90;84.10
1956;DHT22;978;48.314;11.562;2023-07-31T08:21:11;23.90;84.10
1956;DHT22;978;48.314;11.562;2023-07-31T08:23:37;24.20;84.30
1956;DHT22;978;48.314;11.562;2023-07-31T08:26:04;23.90;84.20
1956;DHT22;978;48.314;11.562;2023-07-31T08:28:33;23.90;84.10
1956;DHT22;978;48.314;11.562;2023-07-31T08:31:03;23.90;84.10
1956;DHT22;978;48.314;11.562;2023-07-31T08:33:29;23.90;84.10
1956;DHT22;978;48.314;11.562;2023-07-31T08:35:57;23.90;84.10
1956;DHT22;978;48.314;11.562;2023-07-31T08:38:26;23.90;84.10
1956;DHT22;978;48.314;11.562;2023-07-31T08:40:52;23.90;84.10
1956;DHT22;978;48.314;11.562;2023-07-31T08:43:20;23.90;84.10
1956;DHT22;978;48.314;11.562;2023-07-31T08:45:48;24.20;84.20
1956;DHT22;978;48.314;11.562;2023-07-31T08:48:15;23.90;84.10
1956;DHT22;978;48.314;11.562;2023-07-31T08:50:44;23.90;84.10
1956;DHT22;978;48.314;11.562;2023-07-31T08:53:10;23.90;84.10
1956;DHT22;978;48.314;11.562;2023-07-31T08:55:39;23.90;84.00
1956;DHT22;978;48.314;11.562;2023-07-31T08:58:09;23.90;84.00
1956;DHT22;978;48.314;11.562;2023-07-31T09:00:36;23.90;84.00
1956;DHT22;978;48.314;11.562;2023-07-31T09:03:08;23.90;84.00
1956;DHT22;978;48.314;11.562;2023-07-31T09:05:36;23.90;84.00
1956;DHT22;978;48.314;11.562;2023-07-31T09:08:07;23.90;84.00
1956;DHT22;978;48.314;11.562;2023-07-31T09:10:35;23.90;83.90
1956;DHT22;978;48.314;11.562;2023-07-31T09:13:08;23.90;83.90
1956;DHT22;978;48.314;11.562;2023-07-31T09:15:35;23.90;84.00
1956;DHT22;978;48.314;11.562;2023-07-31T09:18:03;23.80;83.90
1956;DHT22;978;48.314;11.562;2023-07-31T09:20:31;23.90;84.00
1956;DHT22;978;48.314;11.562;2023-07-31T09:23:05;23.90;84.00
1956;DHT22;978;48.314;11.562;2023-07-31T09:25:32;23.90;84.00
1956;DHT22;978;48.314;11.562;2023-07-31T09:28:02;23.90;84.00
1956;DHT22;978;48.314;11.562;2023-07-31T09:30:30;23.80;84.00
1956;DHT22;978;48.314;11.562;2023-07-31T09:33:01;23.90;84.00
1956;DHT22;978;48.314;11.562;2023-07-31T09:35:29;23.90;84.10
1956;DHT22;978;48.314;11.562;2023-07-31T09:37:59;23.90;84.00
1956;DHT22;978;48.314;11.562;2023-07-31T09:40:28;23.90;84.10
1956;DHT22;978;48.314;11.562;2023-07-31T09:42:56;23.90;84.00
1956;DHT22;978;48.314;11.562;2023-07-31T09:45:24;23.90;84.00
1956;DHT22;978;48.314;11.562;2023-07-31T09:47:52;23.90;84.00
1956;DHT22;978;48.314;11.562;2023-07-31T09:50:21;23.90;84.00
1956;DHT22;978;48.314;11.562;2023-07-31T09:52:49;23.90;84.00
1956;DHT22;978;48.314;11.562;2023-07-31T09:55:16;23.90;84.00
1956;DHT22;978;48.314;11.562;2023-07-31T09:57:45;23.90;84.00
1956;DHT22;978;48.314;11.562;2023-07-31T10:00:13;23.90;84.00
1956;DHT22;978;48.314;11.562;2023-07-31T10:02:40;23.90;84.00
1956;DHT22;978;48.314;11.562;2023-07-31T10:05:09;23.90;84.00
1956;DHT22;978;48.314;11.562;2023-07-31T10:07:39;23.90;84.00
1956;DHT22;978;48.314;11.562;2023-07-31T10:10:08;23.90;84.00
1956;DHT22;978;48.314;11.562;2023-07-31T10:12:36;23.90;84.00
1956;DHT22;978;48.314;11.562;2023-07-31T10:15:03;23.90;84.00
1956;DHT22;978;48.314;11.562;2023-07-31T10:17:31;23.90;83.90
1956;DHT22;978;48.314;11.562;2023-07-31T10:19:59;24.10;84.00
1956;DHT22;978;48.314;11.562;2023-07-31T10:22:32;24.80;84.40
1956;DHT22;978;48.314;11.562;2023-07-31T10:25:01;24.00;83.90
1956;DHT22;978;48.314;11.562;2023-07-31T10:27:28;24.00;83.90
1956;DHT22;978;48.314;11.562;2023-07-31T10:29:58;23.90;83.90
1956;DHT22;978;48.314;11.562;2023-07-31T10:32:27;23.90;83.90
1956;DHT22;978;48.314;11.562;2023-07-31T10:34:55;23.80;83.90
1956;DHT22;978;48.314;11.562;2023-07-31T10:37:24;23.90;84.00
1956;DHT22;978;48.314;11.562;2023-07-31T10:40:03;23.90;84.00
1956;DHT22;978;48.314;11.562;2023-07-31T10:42:33;23.90;83.80
1956;DHT22;978;48.314;11.562;2023-07-31T10:45:02;23.90;83.40
1956;DHT22;978;48.314;11.562;2023-07-31T10:47:29;23.90;83.10
1956;DHT22;978;48.314;11.562;2023-07-31T10:50:18;23.90;82.90
1956;DHT22;978;48.314;11.562;2023-07-31T10:52:49;23.90;82.80
1956;DHT22;978;48.314;11.562;2023-07-31T10:55:30;23.90;82.70
1956;DHT22;978;48.314;11.562;2023-07-31T10:58:00;23.90;82.60
1956;DHT22;978;48.314;11.562;2023-07-31T11:00:31;23.90;82.40
1956;DHT22;978;48.314;11.562;2023-07-31T11:02:59;24.10;82.40
1956;DHT22;978;48.314;11.562;2023-07-31T11:05:52;23.90;82.30
1956;DHT22;978;48.314;11.562;2023-07-31T11:08:21;23.90;82.00
1956;DHT22;978;48.314;11.562;2023-07-31T11:10:51;23.90;81.80
1956;DHT22;978;48.314;11.562;2023-07-31T11:13:19;23.90;81.60
1956;DHT22;978;48.314;11.562;2023-07-31T11:15:46;23.90;81.50
1956;DHT22;978;48.314;11.562;2023-07-31T11:18:14;23.80;81.50
1956;DHT22;978;48.314;11.562;2023-07-31T11:20:42;23.90;81.60
1956;DHT22;978;48.314;11.562;2023-07-31T11:23:09;23.90;81.40
1956;DHT22;978;48.314;11.562;2023-07-31T11:25:37;23.90;81.30
1956;DHT22;978;48.314;11.562;2023-07-31T11:28:08;23.80;81.20
1956;DHT22;978;48.314;11.562;2023-07-31T11:30:35;23.90;81.20
1956;DHT22;978;48.314;11.562;2023-07-31T11:33:12;23.90;81.20
1956;DHT22;978;48.314;11.562;2023-07-31T11:35:43;23.90;81.20
1956;DHT22;978;48.314;11.562;2023-07-31T11:38:21;23.90;81.10
1956;DHT22;978;48.314;11.562;2023-07-31T11:40:49;23.90;81.10
1956;DHT22;978;48.314;11.562;2023-07-31T11:43:18;23.90;81.00
1956;DHT22;978;48.314;11.562;2023-07-31T11:45:47;23.90;80.90
1956;DHT22;978;48.314;11.562;2023-07-31T11:48:22;23.90;80.80
1956;DHT22;978;48.314;11.562;2023-07-31T11:50:50;23.80;80.50
1956;DHT22;978;48.314;11.562;2023-07-31T11:53:21;23.90;80.50
1956;DHT22;978;48.314;11.562;2023-07-31T11:55:49;23.90;80.60
1956;DHT22;978;48.314;11.562;2023-07-31T11:58:18;23.90;80.60
1956;DHT22;978;48.314;11.562;2023-07-31T12:00:46;23.90;80.80
1956;DHT22;978;48.314;11.562;2023-07-31T12:03:13;23.90;80.90
1956;DHT22;978;48.314;11.562;2023-07-31T12:05:41;23.90;81.00
1956;DHT22;978;48.314;11.562;2023-07-31T12:08:11;23.90;80.80
1956;DHT22;978;48.314;11.562;2023-07-31T12:10:39;23.90;80.50
1956;DHT22;978;48.314;11.562;2023-07-31T12:13:09;23.90;80.20
1956;DHT22;978;48.314;11.562;2023-07-31T12:15:41;23.90;80.10
1956;DHT22;978;48.314;11.562;2023-07-31T12:18:09;23.90;80.10
1956;DHT22;978;48.314;11.562;2023-07-31T12:20:44;23.90;80.10
1956;DHT22;978;48.314;11.562;2023-07-31T12:23:21;23.90;80.00
1956;DHT22;978;48.314;11.562;2023-07-31T12:26:00;23.90;80.10
1956;DHT22;978;48.314;11.562;2023-07-31T12:28:27;23.90;80.10
1956;DHT22;978;48.314;11.562;2023-07-31T12:30:59;23.90;80.10
1956;DHT22;978;48.314;11.562;2023-07-31T12:33:31;23.90;80.20
1956;DHT22;978;48.314;11.562;2023-07-31T12:36:00;23.90;80.50
1956;DHT22;978;48.314;11.562;2023-07-31T12:38:27;23.90;80.30
1956;DHT22;978;48.314;11.562;2023-07-31T12:40:54;23.90;80.30
1956;DHT22;978;48.314;11.562;2023-07-31T12:43:21;23.90;80.40
1956;DHT22;978;48.314;11.562;2023-07-31T12:45:49;23.90;80.40
1956;DHT22;978;48.314;11.562;2023-07-31T12:48:17;23.80;80.40
1956;DHT22;978;48.314;11.562;2023-07-31T12:50:44;23.90;80.50
1956;DHT22;978;48.314;11.562;2023-07-31T12:53:10;23.90;80.50
1956;DHT22;978;48.314;11.562;2023-07-31T12:55:37;23.90;80.50
1956;DHT22;978;48.314;11.562;2023-07-31T12:58:04;24.70;81.00
1956;DHT22;978;48.314;11.562;2023-07-31T13:00:31;24.00;80.70
1956;DHT22;978;48.314;11.562;2023-07-31T13:02:58;23.90;80.70
1956;DHT22;978;48.314;11.562;2023-07-31T13:05:29;23.90;80.70
1956;DHT22;978;48.314;11.562;2023-07-31T13:07:56;23.90;80.80
1956;DHT22;978;48.314;11.562;2023-07-31T13:10:23;23.90;80.80
1956;DHT22;978;48.314;11.562;2023-07-31T13:12:52;23.90;80.90
1956;DHT22;978;48.314;11.562;2023-07-31T13:15:18;23.90;80.90
1956;DHT22;978;48.314;11.562;2023-07-31T13:17:45;23.90;80.90
1956;DHT22;978;48.314;11.562;2023-07-31T13:20:12;23.90;80.90
1956;DHT22;978;48.314;11.562;2023-07-31T13:22:40;23.90;81.00
1956;DHT22;978;48.314;11.562;2023-07-31T13:25:08;23.90;81.00
1956;DHT22;978;48.314;11.562;2023-07-31T13:27:36;23.90;81.00
1956;DHT22;978;48.314;11.562;2023-07-31T13:30:07;24.90;81.60
1956;DHT22;978;48.314;11.562;2023-07-31T13:32:33;23.90;81.10
1956;DHT22;978;48.314;11.562;2023-07-31T13:35:04;23.90;81.10
1956;DHT22;978;48.314;11.562;2023-07-31T13:37:34;23.90;81.20
1956;DHT22;978;48.314;11.562;2023-07-31T13:40:02;23.90;81.20
1956;DHT22;978;48.314;11.562;2023-07-31T13:42:32;23.90;81.20
1956;DHT22;978;48.314;11.562;2023-07-31T13:44:59;23.90;81.20
1956;DHT22;978;48.314;11.562;2023-07-31T13:47:27;23.90;81.30
1956;DHT22;978;48.314;11.562;2023-07-31T13:49:54;23.90;81.30
1956;DHT22;978;48.314;11.562;2023-07-31T13:52:20;23.90;81.30
1956;DHT22;978;48.314;11.562;2023-07-31T13:54:47;23.90;81.40
1956;DHT22;978;48.314;11.562;2023-07-31T13:57:15;23.90;81.40
1956;DHT22;978;48.314;11.562;2023-07-31T13:59:42;23.90;81.40
1956;DHT22;978;48.314;11.562;2023-07-31T14:02:09;24.10;81.40
1956;DHT22;978;48.314;11.562;2023-07-31T14:04:36;23.90;81.30
1956;DHT22;978;48.314;11.562;2023-07-31T14:07:04;23.90;81.20
1956;DHT22;978;48.314;11.562;2023-07-31T14:09:30;23.90;81.10
1956;DHT22;978;48.314;11.562;2023-07-31T14:11:58;23.90;81.10
1956;DHT22;978;48.314;11.562;2023-07-31T14:14:35;23.90;81.10
1956;DHT22;978;48.314;11.562;2023-07-31T14:17:02;23.90;81.00
1956;DHT22;978;48.314;11.562;2023-07-31T14:19:29;23.90;81.00
1956;DHT22;978;48.314;11.562;2023-07-31T14:21:57;23.90;81.00
1956;DHT22;978;48.314;11.562;2023-07-31T14:24:24;23.90;81.00
1956;DHT22;978;48.314;11.562;2023-07-31T14:26:51;23.90;80.90
1956;DHT22;978;48.314;11.562;2023-07-31T14:29:17;23.90;81.00
1956;DHT22;978;48.314;11.562;2023-07-31T14:31:46;23.90;80.90
1956;DHT22;978;48.314;11.562;2023-07-31T14:34:13;23.90;80.90
1956;DHT22;978;48.314;11.562;2023-07-31T14:36:39;23.90;80.90
1956;DHT22;978;48.314;11.562;2023-07-31T14:39:06;23.90;80.90
1956;DHT22;978;48.314;11.562;2023-07-31T14:41:33;23.90;80.90
1956;DHT22;978;48.314;11.562;2023-07-31T14:44:00;23.90;80.90
1956;DHT22;978;48.314;11.562;2023-07-31T14:46:26;23.90;81.00
1956;DHT22;978;48.314;11.562;2023-07-31T14:48:54;23.90;81.00
1956;DHT22;978;48.314;11.562;2023-07-31T14:51:21;23.90;81.00
1956;DHT22;978;48.314;11.562;2023-07-31T14:53:48;23.90;81.00
1956;DHT22;978;48.314;11.562;2023-07-31T14:56:15;24.50;81.30
1956;DHT22;978;48.314;11.562;2023-07-31T14:58:41;23.90;81.00
1956;DHT22;978;48.314;11.562;2023-07-31T15:01:08;23.90;81.00
1956;DHT22;978;48.314;11.562;2023-07-31T15:03:35;23.90;81.00
1956;DHT22;978;48.314;11.562;2023-07-31T15:06:03;23.90;81.00
1956;DHT22;978;48.314;11.562;2023-07-31T15:08:31;23.90;81.00
1956;DHT22;978;48.314;11.562;2023-07-31T15:10:58;23.90;81.00
1956;DHT22;978;48.314;11.562;2023-07-31T15:13:25;23.90;81.10
1956;DHT22;978;48.314;11.562;2023-07-31T15:15:52;23.90;81.10
1956;DHT22;978;48.314;11.562;2023-07-31T15:18:18;23.90;81.00
1956;DHT22;978;48.314;11.562;2023-07-31T15:20:45;23.90;81.00
1956;DHT22;978;48.314;11.562;2023-07-31T15:23:13;23.90;81.00
1956;DHT22;978;48.314;11.562;2023-07-31T15:25:40;23.90;81.00
1956;DHT22;978;48.314;11.562;2023-07-31T15:28:07;23.90;81.00
1956;DHT22;978;48.314;11.562;2023-07-31T15:30:35;23.90;81.00
1956;DHT22;978;48.314;11.562;2023-07-31T15:33:02;23.90;81.00
1956;DHT22;978;48.314;11.562;2023-07-31T15:35:29;23.90;81.60
1956;DHT22;978;48.314;11.562;2023-07-31T15:37:55;23.90;81.20
1956;DHT22;978;48.314;11.562;2023-07-31T15:40:23;23.90;81.00
1956;DHT22;978;48.314;11.562;2023-07-31T15:42:51;23.90;81.00
1956;DHT22;978;48.314;11.562;2023-07-31T15:45:17;23.90;81.00
1956;DHT22;978;48.314;11.562;2023-07-31T15:47:44;23.90;81.00
1956;DHT22;978;48.314;11.562;2023-07-31T15:50:11;23.90;81.00
1956;DHT22;978;48.314;11.562;2023-07-31T15:52:38;23.90;81.00
1956;DHT22;978;48.314;11.562;2023-07-31T15:55:05;23.90;81.00
1956;DHT22;978;48.314;11.562;2023-07-31T15:57:33;23.90;81.00
1956;DHT22;978;48.314;11.562;2023-07-31T16:00:01;23.90;81.10
1956;DHT22;978;48.314;11.562;2023-07-31T16:02:28;23.90;81.10
1956;DHT22;978;48.314;11.562;2023-07-31T16:04:54;23.90;81.00
1956;DHT22;978;48.314;11.562;2023-07-31T16:07:21;23.90;81.00